createdAt,value
2019-03-01T00:01:25.622Z,3.40
2019-03-01T00:04:22.174Z,3.40
2019-03-01T00:07:35.830Z,3.50
2019-03-01T00:10:46.587Z,3.40
2019-03-01T00:13:59.234Z,3.40
2019-03-01T00:16:49.885Z,3.40
2019-03-01T00:19:50.872Z,3.50
2019-03-01T00:22:43.083Z,3.40
2019-03-01T00:25:21.413Z,3.30
2019-03-01T00:28:20.584Z,3.30
2019-03-01T00:31:15.422Z,3.30
2019-03-01T00:34:03.427Z,3.30
2019-03-01T00:37:23.849Z,3.20
2019-03-01T00:40:20.277Z,3.20
2019-03-01T00:43:19.991Z,3.10
2019-03-01T00:45:51.487Z,3.10
2019-03-01T00:48:22.838Z,3.10
2019-03-01T00:50:54.044Z,3.20
2019-03-01T00:53:25.598Z,3.10
2019-03-01T00:55:56.930Z,3.20
2019-03-01T00:58:28.280Z,3.00
2019-03-01T01:00:59.705Z,3.10
2019-03-01T01:03:31.389Z,3.00
2019-03-01T01:06:02.932Z,3.10
2019-03-01T01:08:35.310Z,3.10
2019-03-01T01:11:06.875Z,3.10
2019-03-01T01:13:38.531Z,3.00
2019-03-01T01:16:09.978Z,3.10
2019-03-01T01:18:42.555Z,3.00
2019-03-01T01:21:13.795Z,2.90
2019-03-01T01:23:45.138Z,2.90
2019-03-01T01:26:16.598Z,2.90
2019-03-01T01:28:47.840Z,2.80
2019-03-01T01:31:19.173Z,2.80
2019-03-01T01:33:51.174Z,2.90
2019-03-01T01:36:22.428Z,2.90
2019-03-01T01:38:54.193Z,2.90
2019-03-01T01:41:25.717Z,2.80
2019-03-01T01:43:56.893Z,2.80
2019-03-01T01:46:27.989Z,2.80
2019-03-01T01:48:59.566Z,2.80
2019-03-01T01:51:30.989Z,2.80
2019-03-01T01:54:02.769Z,2.90
2019-03-01T01:56:35.479Z,2.80
2019-03-01T01:59:06.911Z,2.90
2019-03-01T02:01:38.389Z,2.80
2019-03-01T02:04:09.976Z,2.80
2019-03-01T02:06:41.258Z,2.80
2019-03-01T02:09:28.855Z,2.70
2019-03-01T02:12:00.340Z,2.70
2019-03-01T02:14:31.727Z,2.70
2019-03-01T02:17:02.908Z,2.70
2019-03-01T02:19:34.387Z,2.60
2019-03-01T02:22:05.839Z,2.60
2019-03-01T02:24:37.023Z,2.60
2019-03-01T02:27:27.873Z,2.60
2019-03-01T02:30:00.503Z,2.50
2019-03-01T02:32:50.697Z,2.40
2019-03-01T02:35:26.369Z,2.50
2019-03-01T02:37:57.787Z,2.50
2019-03-01T02:40:29.160Z,2.40
2019-03-01T02:43:00.349Z,2.50
2019-03-01T02:45:32.113Z,2.40
2019-03-01T02:48:03.388Z,2.40
2019-03-01T02:50:34.861Z,2.40
2019-03-01T02:53:06.152Z,2.40
2019-03-01T02:55:38.589Z,2.50
2019-03-01T02:58:10.340Z,2.50
2019-03-01T03:00:43.892Z,2.40
2019-03-01T03:03:14.450Z,2.30
2019-03-01T03:06:04.639Z,2.40
2019-03-01T03:08:35.960Z,2.40
2019-03-01T03:11:07.046Z,2.40
2019-03-01T03:13:38.236Z,2.30
2019-03-01T03:16:09.495Z,2.40
2019-03-01T03:18:40.738Z,2.40
2019-03-01T03:21:11.763Z,2.40
2019-03-01T03:23:42.865Z,2.30
2019-03-01T03:26:14.479Z,2.40
2019-03-01T03:28:45.612Z,2.30
2019-03-01T03:31:16.954Z,2.30
2019-03-01T03:33:48.041Z,2.20
2019-03-01T03:36:19.268Z,2.10
2019-03-01T03:38:50.510Z,2.20
2019-03-01T03:41:21.736Z,2.20
2019-03-01T03:43:52.983Z,2.20
2019-03-01T03:46:24.066Z,2.20
2019-03-01T03:48:55.185Z,2.20
2019-03-01T03:51:26.608Z,2.00
2019-03-01T03:53:59.124Z,2.10
2019-03-01T03:56:30.565Z,2.30
2019-03-01T03:59:01.534Z,2.30
2019-03-01T04:01:32.736Z,2.30
2019-03-01T04:04:04.789Z,2.30
2019-03-01T04:06:36.252Z,2.20
2019-03-01T04:09:08.828Z,2.30
2019-03-01T04:11:40.278Z,2.20
2019-03-01T04:14:11.523Z,2.20
2019-03-01T04:16:42.787Z,2.10
2019-03-01T04:19:13.989Z,2.20
2019-03-01T04:21:45.876Z,2.10
2019-03-01T04:24:17.246Z,2.00
2019-03-01T04:26:48.430Z,2.00
2019-03-01T04:29:34.671Z,2.00
2019-03-01T04:32:15.134Z,2.10
2019-03-01T04:34:47.468Z,2.10
2019-03-01T04:37:18.737Z,1.90
2019-03-01T04:39:49.896Z,1.90
2019-03-01T04:42:21.136Z,1.90
2019-03-01T04:44:52.389Z,1.90
2019-03-01T04:47:23.646Z,1.80
2019-03-01T04:49:58.760Z,1.80
2019-03-01T04:52:34.739Z,1.90
2019-03-01T04:55:16.744Z,1.90
2019-03-01T04:57:49.200Z,1.90
2019-03-01T05:00:22.087Z,2.00
2019-03-01T05:02:53.490Z,1.90
2019-03-01T05:05:24.638Z,1.80
2019-03-01T05:07:56.030Z,1.70
2019-03-01T05:10:28.403Z,1.70
2019-03-01T05:12:59.499Z,1.80
2019-03-01T05:15:30.848Z,1.90
2019-03-01T05:18:02.031Z,1.80
2019-03-01T05:20:33.134Z,1.90
2019-03-01T05:23:04.009Z,1.90
2019-03-01T05:25:35.037Z,1.90
2019-03-01T05:28:05.972Z,1.90
2019-03-01T05:30:37.325Z,1.90
2019-03-01T05:33:08.286Z,1.90
2019-03-01T05:35:39.218Z,1.80
2019-03-01T05:38:10.447Z,1.70
2019-03-01T05:40:41.614Z,1.60
2019-03-01T05:43:12.666Z,1.70
2019-03-01T05:45:43.705Z,1.70
2019-03-01T05:48:14.680Z,1.80
2019-03-01T05:50:45.747Z,1.80
2019-03-01T05:53:16.731Z,1.90
2019-03-01T05:55:47.746Z,1.90
2019-03-01T05:58:39.308Z,1.80
2019-03-01T06:01:29.818Z,1.90
2019-03-01T06:04:10.717Z,1.90
2019-03-01T06:07:22.396Z,2.00
2019-03-01T06:10:29.817Z,2.10
2019-03-01T06:13:37.391Z,2.10
2019-03-01T06:16:49.480Z,2.20
2019-03-01T06:20:09.925Z,2.40
2019-03-01T06:23:13.014Z,2.70
2019-03-01T06:26:02.911Z,3.30
2019-03-01T06:28:48.197Z,3.30
2019-03-01T06:31:43.169Z,3.60
2019-03-01T06:34:38.540Z,5.50
2019-03-01T06:37:57.358Z,8.80
2019-03-01T06:41:17.938Z,10.40
2019-03-01T06:44:14.889Z,8.80
2019-03-01T06:47:40.467Z,6.20
2019-03-01T06:50:17.056Z,4.80
2019-03-01T06:52:48.204Z,3.80
2019-03-01T06:55:55.050Z,3.40
2019-03-01T06:58:41.059Z,3.30
2019-03-01T07:01:17.159Z,2.80
2019-03-01T07:03:56.382Z,2.50
2019-03-01T07:06:27.488Z,2.40
2019-03-01T07:08:58.582Z,2.40
2019-03-01T07:11:29.500Z,2.10
2019-03-01T07:14:01.804Z,2.10
2019-03-01T07:16:32.849Z,2.20
2019-03-01T07:19:03.748Z,2.30
2019-03-01T07:21:34.847Z,2.50
2019-03-01T07:24:06.150Z,2.40
2019-03-01T07:26:37.165Z,2.40
2019-03-01T07:29:08.205Z,2.40
2019-03-01T07:31:39.209Z,2.30
2019-03-01T07:34:10.314Z,2.30
2019-03-01T07:36:41.337Z,2.30
2019-03-01T07:39:12.577Z,2.30
2019-03-01T07:41:43.524Z,2.20
2019-03-01T07:44:15.061Z,2.30
2019-03-01T07:46:52.744Z,2.30
2019-03-01T07:49:18.688Z,2.20
2019-03-01T07:51:49.993Z,2.30
2019-03-01T07:54:22.363Z,2.20
2019-03-01T07:56:54.221Z,2.20
2019-03-01T07:59:25.412Z,2.30
2019-03-01T08:01:57.199Z,2.30
2019-03-01T08:04:29.539Z,2.20
2019-03-01T08:07:00.755Z,2.10
2019-03-01T08:09:31.572Z,2.00
2019-03-01T08:12:03.733Z,2.00
2019-03-01T08:14:35.010Z,2.00
2019-03-01T08:17:06.028Z,2.10
2019-03-01T08:19:37.015Z,2.00
2019-03-01T08:22:08.125Z,2.10
2019-03-01T08:24:39.283Z,2.30
2019-03-01T08:27:11.149Z,2.50
2019-03-01T08:29:42.128Z,2.50
2019-03-01T08:32:12.924Z,2.60
2019-03-01T08:34:43.751Z,2.70
2019-03-01T08:37:17.440Z,2.80
2019-03-01T08:39:49.603Z,2.70
2019-03-01T08:42:20.136Z,2.60
2019-03-01T08:44:51.357Z,2.60
2019-03-01T08:47:24.452Z,2.50
2019-03-01T08:49:54.601Z,2.40
2019-03-01T08:52:25.414Z,2.40
2019-03-01T08:55:00.338Z,2.30
2019-03-01T08:57:28.652Z,2.30
2019-03-01T08:59:59.493Z,2.40
2019-03-01T09:02:30.291Z,2.30
2019-03-01T09:05:01.552Z,2.20
2019-03-01T09:07:34.049Z,2.20
2019-03-01T09:10:05.337Z,2.10
2019-03-01T09:12:36.139Z,2.20
2019-03-01T09:15:08.322Z,2.40
2019-03-01T09:17:39.246Z,2.70
2019-03-01T09:20:11.866Z,2.80
2019-03-01T09:22:42.669Z,2.70
2019-03-01T09:25:14.524Z,2.80
2019-03-01T09:27:46.358Z,2.90
2019-03-01T09:30:19.721Z,3.00
2019-03-01T09:32:50.586Z,3.00
2019-03-01T09:35:43.991Z,2.80
2019-03-01T09:38:16.276Z,2.30
2019-03-01T09:40:47.083Z,1.70
2019-03-01T09:43:17.988Z,1.40
2019-03-01T09:45:49.550Z,1.40
2019-03-01T09:48:20.957Z,1.60
2019-03-01T09:50:52.198Z,1.80
2019-03-01T09:53:24.376Z,2.10
2019-03-01T09:55:55.188Z,2.40
2019-03-01T09:58:26.005Z,2.50
2019-03-01T10:01:00.761Z,2.60
2019-03-01T10:03:31.601Z,2.70
2019-03-01T10:06:02.659Z,2.90
2019-03-01T10:08:33.512Z,3.20
2019-03-01T10:11:04.339Z,3.50
2019-03-01T10:16:06.507Z,3.40
2019-03-01T10:18:37.665Z,3.20
2019-03-01T10:21:08.502Z,2.90
2019-03-01T10:23:39.348Z,3.00
2019-03-01T10:26:10.491Z,3.00
2019-03-01T10:28:41.332Z,3.10
2019-03-01T10:31:12.473Z,3.00
2019-03-01T10:33:43.615Z,2.90
2019-03-01T10:36:14.545Z,2.90
2019-03-01T10:38:45.399Z,3.00
2019-03-01T10:41:16.276Z,3.10
2019-03-01T10:43:47.104Z,3.20
2019-03-01T10:46:17.938Z,3.30
2019-03-01T10:48:48.862Z,3.30
2019-03-01T10:51:19.711Z,3.20
2019-03-01T10:53:50.566Z,3.30
2019-03-01T10:56:22.407Z,3.30
2019-03-01T10:58:53.258Z,3.40
2019-03-01T11:01:24.076Z,3.30
2019-03-01T11:03:55.003Z,3.20
2019-03-01T11:06:25.833Z,3.10
2019-03-01T11:08:56.665Z,3.10
2019-03-01T11:11:27.480Z,3.20
2019-03-01T11:13:58.296Z,3.10
2019-03-01T11:16:29.501Z,3.20
2019-03-01T11:19:00.459Z,3.10
2019-03-01T11:21:31.293Z,3.10
2019-03-01T11:24:02.117Z,3.00
2019-03-01T11:26:33.052Z,3.00
2019-03-01T11:29:03.868Z,3.00
2019-03-01T11:31:34.698Z,3.10
2019-03-01T11:34:05.533Z,3.30
2019-03-01T11:36:36.391Z,3.40
2019-03-01T11:39:08.018Z,3.20
2019-03-01T11:41:39.918Z,3.00
2019-03-01T11:44:10.733Z,2.90
2019-03-01T11:46:41.598Z,3.10
2019-03-01T11:49:12.393Z,3.20
2019-03-01T11:51:43.220Z,3.20
2019-03-01T11:54:14.070Z,3.10
2019-03-01T11:56:44.931Z,3.00
2019-03-01T11:59:15.795Z,3.00
2019-03-01T12:01:46.771Z,3.10
2019-03-01T12:04:17.624Z,3.20
2019-03-01T12:06:48.524Z,3.10
2019-03-01T12:09:19.500Z,2.90
2019-03-01T12:11:50.433Z,2.90
2019-03-01T12:14:22.329Z,2.90
2019-03-01T12:16:54.568Z,2.80
2019-03-01T12:19:25.822Z,2.80
2019-03-01T12:21:56.888Z,2.60
2019-03-01T12:24:27.746Z,2.50
2019-03-01T12:26:58.589Z,2.50
2019-03-01T12:29:30.581Z,2.50
2019-03-01T12:32:01.512Z,2.20
2019-03-01T12:34:32.630Z,2.20
2019-03-01T12:37:04.129Z,2.20
2019-03-01T12:39:34.970Z,2.10
2019-03-01T12:42:05.801Z,2.10
2019-03-01T12:44:36.598Z,2.10
2019-03-01T12:47:07.423Z,2.10
2019-03-01T12:49:38.221Z,1.90
2019-03-01T12:52:09.094Z,2.00
2019-03-01T12:54:39.877Z,2.00
2019-03-01T12:57:10.707Z,2.10
2019-03-01T12:59:41.521Z,2.10
2019-03-01T13:02:12.380Z,2.10
2019-03-01T13:04:43.185Z,2.10
2019-03-01T13:07:14.062Z,2.10
2019-03-01T13:09:44.836Z,2.20
2019-03-01T13:12:15.757Z,2.10
2019-03-01T13:14:46.567Z,2.00
2019-03-01T13:17:18.295Z,1.90
2019-03-01T13:19:50.306Z,1.80
2019-03-01T13:22:21.133Z,1.90
2019-03-01T13:24:53.537Z,1.90
2019-03-01T13:27:24.418Z,1.90
2019-03-01T13:29:58.283Z,1.80
2019-03-01T13:32:27.681Z,1.90
2019-03-01T13:34:58.484Z,2.00
2019-03-01T13:37:29.321Z,2.10
2019-03-01T13:40:00.229Z,2.10
2019-03-01T13:42:42.948Z,2.00
2019-03-01T13:45:15.910Z,2.10
2019-03-01T13:47:46.704Z,2.10
2019-03-01T13:50:18.153Z,2.10
2019-03-01T13:52:50.316Z,2.10
2019-03-01T13:55:23.653Z,2.00
2019-03-01T13:57:53.798Z,2.00
2019-03-01T14:00:24.736Z,2.00
2019-03-01T14:02:55.558Z,2.00
2019-03-01T14:05:26.360Z,2.20
2019-03-01T14:07:57.482Z,2.10
2019-03-01T14:10:28.368Z,1.90
2019-03-01T14:13:01.169Z,2.00
2019-03-01T14:15:35.016Z,2.00
2019-03-01T14:18:04.604Z,1.90
2019-03-01T14:20:35.487Z,1.80
2019-03-01T14:23:06.330Z,1.80
2019-03-01T14:25:38.608Z,1.70
2019-03-01T14:28:10.583Z,1.70
2019-03-01T14:30:41.385Z,1.60
2019-03-01T14:33:12.195Z,1.70
2019-03-01T14:35:43.135Z,1.70
2019-03-01T14:38:13.947Z,1.80
2019-03-01T14:40:44.808Z,1.70
2019-03-01T14:43:15.650Z,1.70
2019-03-01T14:45:46.706Z,1.60
2019-03-01T14:48:17.526Z,1.60
2019-03-01T14:50:49.069Z,1.60
2019-03-01T14:53:20.147Z,1.50
2019-03-01T14:55:55.717Z,1.50
2019-03-01T14:58:34.464Z,1.40
2019-03-01T15:01:51.109Z,1.40
2019-03-01T15:04:21.962Z,1.40
2019-03-01T15:06:55.074Z,1.40
2019-03-01T15:09:25.237Z,1.30
2019-03-01T15:11:56.161Z,1.20
2019-03-01T15:14:27.074Z,1.30
2019-03-01T15:16:57.877Z,1.30
2019-03-01T15:19:28.707Z,1.30
2019-03-01T15:21:59.513Z,1.30
2019-03-01T15:24:33.231Z,1.10
2019-03-01T15:27:04.087Z,1.20
2019-03-01T15:29:35.360Z,1.20
2019-03-01T15:32:06.684Z,1.20
2019-03-01T15:34:37.526Z,1.10
2019-03-01T15:37:08.353Z,1.10
2019-03-01T15:39:39.424Z,1.10
2019-03-01T15:42:10.570Z,1.10
2019-03-01T15:44:41.398Z,1.10
2019-03-01T15:47:12.440Z,1.10
2019-03-01T15:49:43.630Z,1.20
2019-03-01T15:52:14.785Z,1.20
2019-03-01T15:54:45.760Z,1.10
2019-03-01T15:57:19.001Z,1.10
2019-03-01T15:59:49.020Z,1.00
2019-03-01T16:02:20.842Z,1.00
2019-03-01T16:04:51.999Z,0.90
2019-03-01T16:07:22.788Z,0.90
2019-03-01T16:09:53.621Z,1.00
2019-03-01T16:12:24.433Z,1.00
2019-03-01T16:14:57.380Z,0.90
2019-03-01T16:17:30.188Z,1.00
2019-03-01T16:20:01.029Z,0.90
2019-03-01T16:22:32.920Z,0.90
2019-03-01T16:25:03.934Z,0.90
2019-03-01T16:27:35.070Z,0.80
2019-03-01T16:30:06.853Z,0.80
2019-03-01T16:32:41.147Z,0.80
2019-03-01T16:35:16.369Z,0.80
2019-03-01T16:37:45.915Z,0.80
2019-03-01T16:40:16.745Z,0.80
2019-03-01T16:42:53.032Z,0.90
2019-03-01T16:45:21.019Z,0.90
2019-03-01T16:47:53.024Z,0.90
2019-03-01T16:50:24.289Z,0.90
2019-03-01T16:52:55.100Z,0.90
2019-03-01T16:55:28.006Z,0.90
2019-03-01T16:58:06.791Z,0.90
2019-03-01T17:00:31.318Z,0.90
2019-03-01T17:03:02.492Z,0.80
2019-03-01T17:05:35.676Z,0.70
2019-03-01T17:08:06.138Z,0.70
2019-03-01T17:10:37.049Z,0.70
2019-03-01T17:13:07.968Z,0.70
2019-03-01T17:15:39.328Z,0.70
2019-03-01T17:18:12.303Z,0.70
2019-03-01T17:20:42.672Z,0.80
2019-03-01T17:23:14.635Z,0.80
2019-03-01T17:25:47.596Z,0.80
2019-03-01T17:28:23.612Z,0.80
2019-03-01T17:30:51.659Z,0.80
2019-03-01T17:33:23.999Z,0.80
2019-03-01T17:35:55.336Z,0.80
2019-03-01T17:38:26.183Z,0.80
2019-03-01T17:40:57.009Z,0.70
2019-03-01T17:43:29.671Z,0.80
2019-03-01T17:46:00.324Z,0.70
2019-03-01T17:48:31.381Z,0.70
2019-03-01T17:51:02.617Z,0.60
2019-03-01T17:53:33.481Z,0.70
2019-03-01T17:56:04.416Z,0.60
2019-03-01T17:58:35.585Z,0.60
2019-03-01T18:01:06.972Z,0.70
2019-03-01T18:03:37.804Z,0.70
2019-03-01T18:06:08.724Z,0.60
2019-03-01T18:08:40.650Z,0.60
2019-03-01T18:11:11.708Z,0.70
2019-03-01T18:13:43.024Z,0.80
2019-03-01T18:16:14.166Z,0.70
2019-03-01T18:18:48.791Z,0.70
2019-03-01T18:21:18.048Z,0.80
2019-03-01T18:23:48.865Z,0.80
2019-03-01T18:26:19.699Z,0.80
2019-03-01T18:28:50.918Z,0.80
2019-03-01T18:31:21.925Z,0.50
2019-03-01T18:33:53.651Z,0.50
2019-03-01T18:36:28.258Z,0.50
2019-03-01T18:39:00.136Z,0.50
2019-03-01T18:41:33.205Z,0.60
2019-03-01T18:44:04.330Z,0.60
2019-03-01T18:46:35.204Z,0.70
2019-03-01T18:49:06.286Z,0.70
2019-03-01T18:51:42.332Z,0.70
2019-03-01T18:54:09.769Z,0.70
2019-03-01T18:56:40.576Z,0.70
2019-03-01T18:59:11.526Z,0.70
2019-03-01T19:01:46.464Z,0.70
2019-03-01T19:04:16.657Z,0.60
2019-03-01T19:06:51.353Z,0.60
2019-03-01T19:09:20.844Z,0.40
2019-03-01T19:11:51.818Z,0.40
2019-03-01T19:14:22.646Z,0.50
2019-03-01T19:16:53.957Z,0.50
2019-03-01T19:19:29.744Z,0.60
2019-03-01T19:21:57.243Z,0.60
2019-03-01T19:24:28.077Z,0.70
2019-03-01T19:26:58.963Z,0.70
2019-03-01T19:29:30.399Z,0.90
2019-03-01T19:32:01.219Z,0.90
2019-03-01T19:34:32.155Z,1.00
2019-03-01T19:37:04.050Z,1.00
2019-03-01T19:39:35.389Z,0.90
2019-03-01T19:42:06.916Z,1.00
2019-03-01T19:44:37.754Z,1.00
2019-03-01T19:47:08.625Z,0.90
2019-03-01T19:49:39.481Z,1.00
2019-03-01T19:52:12.188Z,0.90
2019-03-01T19:54:42.808Z,0.90
2019-03-01T19:57:13.661Z,0.80
2019-03-01T19:59:46.546Z,0.80
2019-03-01T20:02:17.007Z,0.90
2019-03-01T20:04:47.939Z,0.90
2019-03-01T20:07:20.729Z,1.00
2019-03-01T20:09:51.749Z,1.00
2019-03-01T20:12:23.074Z,1.00
2019-03-01T20:14:53.973Z,0.90
2019-03-01T20:17:25.854Z,0.90
2019-03-01T20:19:56.982Z,0.90
2019-03-01T20:22:29.781Z,0.90
2019-03-01T20:25:00.636Z,1.00
2019-03-01T20:27:31.816Z,1.00
2019-03-01T20:30:04.239Z,0.90
2019-03-01T20:32:36.421Z,0.90
2019-03-01T20:35:09.647Z,0.80
2019-03-01T20:37:40.216Z,0.90
2019-03-01T20:40:11.297Z,0.90
2019-03-01T20:42:42.190Z,0.90
2019-03-01T20:45:16.483Z,1.00
2019-03-01T20:47:50.462Z,1.00
2019-03-01T20:50:20.239Z,1.00
2019-03-01T20:52:52.365Z,1.00
2019-03-01T20:55:23.964Z,0.90
2019-03-01T20:57:55.165Z,0.90
2019-03-01T21:00:27.344Z,0.90
2019-03-01T21:02:58.929Z,0.80
2019-03-01T21:05:30.872Z,0.80
2019-03-01T21:08:01.875Z,0.80
2019-03-01T21:10:32.923Z,0.80
2019-03-01T21:13:03.792Z,0.90
2019-03-01T21:15:37.641Z,0.90
2019-03-01T21:18:07.179Z,1.00
2019-03-01T21:20:38.065Z,1.00
2019-03-01T21:23:11.784Z,1.00
2019-03-01T21:25:41.487Z,1.10
2019-03-01T21:28:14.273Z,1.00
2019-03-01T21:30:45.613Z,1.10
2019-03-01T21:33:16.664Z,1.10
2019-03-01T21:35:47.877Z,1.00
2019-03-01T21:38:20.076Z,1.00
2019-03-01T21:40:50.951Z,1.00
2019-03-01T21:43:21.790Z,1.00
2019-03-01T21:45:55.487Z,1.00
2019-03-01T21:48:25.220Z,1.00
2019-03-01T21:51:00.033Z,1.00
2019-03-01T21:53:30.881Z,1.00
2019-03-01T21:56:04.524Z,1.00
2019-03-01T21:58:34.372Z,0.90
2019-03-01T22:01:06.950Z,0.90
2019-03-01T22:03:37.901Z,0.90
2019-03-01T22:06:08.744Z,0.90
2019-03-01T22:08:39.556Z,0.80
2019-03-01T22:11:13.505Z,0.80
2019-03-01T22:13:43.040Z,0.80
2019-03-01T22:16:13.855Z,0.70
2019-03-01T22:18:44.709Z,0.70
2019-03-01T22:21:16.920Z,0.70
2019-03-01T22:23:51.455Z,0.70
2019-03-01T22:26:20.521Z,0.50
2019-03-01T22:28:51.351Z,0.50
2019-03-01T22:31:22.170Z,0.60
2019-03-01T22:33:55.865Z,0.60
2019-03-01T22:36:25.549Z,0.70
2019-03-01T22:38:57.401Z,0.60
2019-03-01T22:41:28.231Z,0.70
2019-03-01T22:44:01.762Z,0.70
2019-03-01T22:46:31.664Z,0.70
2019-03-01T22:49:02.534Z,0.80
2019-03-01T22:51:33.349Z,0.80
2019-03-01T22:54:04.252Z,0.80
2019-03-01T22:56:35.108Z,0.70
2019-03-01T22:59:08.690Z,0.60
2019-03-01T23:01:46.268Z,0.60
2019-03-01T23:04:17.165Z,0.70
2019-03-01T23:06:51.501Z,0.60
2019-03-01T23:09:20.823Z,0.60
2019-03-01T23:11:53.356Z,0.60
2019-03-01T23:14:27.317Z,0.70
2019-03-01T23:16:57.642Z,0.60
2019-03-01T23:19:28.496Z,0.60
2019-03-01T23:21:59.332Z,0.60
2019-03-01T23:24:31.670Z,0.60
2019-03-01T23:27:03.808Z,0.50
2019-03-01T23:29:34.664Z,0.60
2019-03-01T23:32:05.513Z,0.70
2019-03-01T23:34:38.965Z,0.70
2019-03-01T23:37:08.859Z,0.80
2019-03-01T23:39:39.700Z,0.80
2019-03-01T23:42:10.508Z,0.80
2019-03-01T23:44:41.516Z,0.80
2019-03-01T23:47:13.166Z,0.80
2019-03-01T23:49:44.121Z,0.80
2019-03-01T23:52:15.041Z,0.80
2019-03-01T23:54:47.745Z,0.70
2019-03-01T23:57:18.285Z,0.80
2019-03-01T23:59:50.155Z,0.80
